Ely, Vermont
Current Conditions -  °F | °C
As of 7:53 PM on Wednesday 17 Dec 2014 (Local Time) from KLEB Reporting Station
Haze Haze  
Wind Chill: 34°   Ceiling: 3400
Heat Index: 34°   Visibility: 3mi
Dew Point: 33°   Wind: 0mph
Humidity: 96%   Direction: NA
Pressure: 29.73"   Gusts: NA
Location:  43.9127°N, 72.1951°W
Report Text: KLEB 180053Z 00000KT 3SM BR FEW001 OVC034 01/01 A2973 RMK AO2 UPE04 SLP076 P0000 T00110006
Loading
Personal Weather Stations






























Interactive Weather Map New forecast layout! Learn more

10-Day Weather Forecast

Advertisements
Track Severe Weather on mobile